createdAt,value
2017-12-29T00:00:54.397Z,2.70
2017-12-29T00:03:24.209Z,2.23
2017-12-29T00:05:51.905Z,2.13
2017-12-29T00:08:19.741Z,2.03
2017-12-29T00:10:47.632Z,3.00
2017-12-29T00:13:15.514Z,2.63
2017-12-29T00:15:43.317Z,2.50
2017-12-29T00:18:12.272Z,3.10
2017-12-29T00:20:39.931Z,3.43
2017-12-29T00:23:09.112Z,2.30
2017-12-29T00:25:36.974Z,2.70
2017-12-29T00:28:04.944Z,2.27
2017-12-29T00:30:35.311Z,2.90
2017-12-29T00:33:03.346Z,2.57
2017-12-29T00:35:32.234Z,3.10
2017-12-29T00:38:00.315Z,3.10
2017-12-29T00:40:27.973Z,2.63
2017-12-29T00:42:56.647Z,3.10
2017-12-29T00:45:25.180Z,2.60
2017-12-29T00:47:53.145Z,3.43
2017-12-29T00:50:21.169Z,3.50
2017-12-29T00:52:49.627Z,2.80
2017-12-29T00:55:18.676Z,3.20
2017-12-29T00:57:46.366Z,2.60
2017-12-29T01:00:14.206Z,2.60
2017-12-29T01:02:41.885Z,3.07
2017-12-29T01:05:09.586Z,2.63
2017-12-29T01:07:37.483Z,3.40
2017-12-29T01:10:05.221Z,3.10
2017-12-29T01:12:34.960Z,4.33
2017-12-29T01:15:02.663Z,2.77
2017-12-29T01:17:30.316Z,3.20
2017-12-29T01:19:58.016Z,4.03
2017-12-29T01:22:26.455Z,3.20
2017-12-29T01:24:54.299Z,3.40
2017-12-29T01:27:21.971Z,3.47
2017-12-29T01:29:49.683Z,3.00
2017-12-29T01:32:18.458Z,2.80
2017-12-29T01:34:46.930Z,3.33
2017-12-29T01:37:14.835Z,2.97
2017-12-29T01:39:43.639Z,3.00
2017-12-29T01:42:11.323Z,3.30
2017-12-29T01:44:39.169Z,4.00
2017-12-29T01:50:00.373Z,3.93
2017-12-29T01:52:28.034Z,3.20
2017-12-29T01:54:55.861Z,2.73
2017-12-29T01:57:24.470Z,3.10
2017-12-29T01:59:53.003Z,3.80
2017-12-29T02:02:20.662Z,3.03
2017-12-29T02:04:48.972Z,2.77
2017-12-29T02:07:17.508Z,2.60
2017-12-29T02:09:46.047Z,3.20
2017-12-29T02:12:13.746Z,3.30
2017-12-29T02:14:41.934Z,3.07
2017-12-29T02:17:09.783Z,3.10
2017-12-29T02:19:37.547Z,3.27
2017-12-29T02:22:05.503Z,3.30
2017-12-29T02:24:33.234Z,3.30
2017-12-29T02:27:01.635Z,3.00
2017-12-29T02:29:29.362Z,2.90
2017-12-29T02:31:57.119Z,3.10
2017-12-29T02:34:25.951Z,4.00
2017-12-29T02:36:54.405Z,4.07
2017-12-29T02:39:22.261Z,3.87
2017-12-29T02:41:50.453Z,4.30
2017-12-29T02:44:18.166Z,3.97
2017-12-29T02:46:46.585Z,3.60
2017-12-29T02:49:16.835Z,3.43
2017-12-29T02:51:47.663Z,3.43
2017-12-29T02:54:16.847Z,3.70
2017-12-29T02:56:45.735Z,4.43
2017-12-29T02:59:14.102Z,3.67
2017-12-29T03:01:44.506Z,3.80
2017-12-29T03:04:12.205Z,3.90
2017-12-29T03:06:42.823Z,3.80
2017-12-29T03:09:11.222Z,4.30
2017-12-29T03:11:39.175Z,4.03
2017-12-29T03:14:14.330Z,3.93
2017-12-29T03:16:42.778Z,3.70
2017-12-29T03:19:11.548Z,4.43
2017-12-29T03:21:39.235Z,4.30
2017-12-29T03:24:07.163Z,3.90
2017-12-29T03:26:35.027Z,4.60
2017-12-29T03:29:02.804Z,4.27
2017-12-29T03:31:30.518Z,3.83
2017-12-29T03:33:58.166Z,3.93
2017-12-29T03:36:26.829Z,3.77
2017-12-29T03:38:54.525Z,3.70
2017-12-29T03:41:22.234Z,4.50
2017-12-29T03:43:50.713Z,3.80
2017-12-29T03:46:18.434Z,4.43
2017-12-29T03:48:46.103Z,4.30
2017-12-29T03:51:13.920Z,4.30
2017-12-29T03:53:42.065Z,4.20
2017-12-29T03:56:13.810Z,4.33
2017-12-29T03:58:42.070Z,4.50
2017-12-29T04:01:09.885Z,4.83
2017-12-29T04:03:38.333Z,4.23
2017-12-29T04:06:06.059Z,5.20
2017-12-29T04:08:34.910Z,4.67
2017-12-29T04:11:02.642Z,4.33
2017-12-29T04:13:30.410Z,4.80
2017-12-29T04:15:58.931Z,4.87
2017-12-29T04:18:26.654Z,4.93
2017-12-29T04:20:54.394Z,4.60
2017-12-29T04:23:23.995Z,4.83
2017-12-29T04:25:51.811Z,4.90
2017-12-29T04:28:20.703Z,4.33
2017-12-29T04:30:48.824Z,4.50
2017-12-29T04:33:16.503Z,5.43
2017-12-29T04:35:45.394Z,4.20
2017-12-29T04:38:13.123Z,4.87
2017-12-29T04:40:40.831Z,3.83
2017-12-29T04:43:09.034Z,4.60
2017-12-29T04:45:36.761Z,5.00
2017-12-29T04:48:04.664Z,4.57
2017-12-29T04:50:33.192Z,5.60
2017-12-29T04:53:00.934Z,4.50
2017-12-29T04:55:29.614Z,4.10
2017-12-29T04:57:58.075Z,4.70
2017-12-29T05:00:26.256Z,3.90
2017-12-29T05:02:53.946Z,4.60
2017-12-29T05:05:22.115Z,4.10
2017-12-29T05:07:50.780Z,4.93
2017-12-29T05:10:18.950Z,4.23
2017-12-29T05:12:46.963Z,4.00
2017-12-29T05:15:14.702Z,4.80
2017-12-29T05:17:43.166Z,4.17
2017-12-29T05:20:12.990Z,4.23
2017-12-29T05:22:41.011Z,4.20
2017-12-29T05:25:09.179Z,4.77
2017-12-29T05:27:37.770Z,4.77
2017-12-29T05:30:05.475Z,4.93
2017-12-29T05:32:34.028Z,5.93
2017-12-29T05:35:02.513Z,4.50
2017-12-29T05:37:30.178Z,4.20
2017-12-29T05:39:58.037Z,4.07
2017-12-29T05:42:26.547Z,4.50
2017-12-29T05:44:54.259Z,4.17
2017-12-29T05:47:22.627Z,5.20
2017-12-29T05:49:50.811Z,3.90
2017-12-29T05:52:23.008Z,5.40
2017-12-29T05:54:50.987Z,4.00
2017-12-29T05:57:18.674Z,4.73
2017-12-29T05:59:46.334Z,4.93
2017-12-29T06:02:14.954Z,4.60
2017-12-29T06:04:42.617Z,4.50
2017-12-29T06:07:10.339Z,5.07
2017-12-29T06:09:38.192Z,5.10
2017-12-29T06:12:06.057Z,4.10
2017-12-29T06:14:34.034Z,4.63
2017-12-29T06:17:01.750Z,3.90
2017-12-29T06:19:29.647Z,4.57
2017-12-29T06:21:58.560Z,4.53
2017-12-29T06:24:26.724Z,4.30
2017-12-29T06:26:54.599Z,5.10
2017-12-29T06:29:22.273Z,4.23
2017-12-29T06:31:50.339Z,4.00
2017-12-29T06:34:20.320Z,4.73
2017-12-29T06:36:48.724Z,4.83
2017-12-29T06:39:18.160Z,4.23
2017-12-29T06:41:45.883Z,4.77
2017-12-29T06:44:14.011Z,3.70
2017-12-29T06:46:42.070Z,4.00
2017-12-29T06:49:09.738Z,3.53
2017-12-29T06:51:37.638Z,4.67
2017-12-29T06:54:06.951Z,7.97
2017-12-29T06:56:35.741Z,6.03
2017-12-29T06:59:03.631Z,4.87
2017-12-29T07:01:31.312Z,4.47
2017-12-29T07:03:59.605Z,4.80
2017-12-29T07:06:27.449Z,4.43
2017-12-29T07:08:55.653Z,5.80
2017-12-29T07:11:24.293Z,4.97
2017-12-29T07:13:52.010Z,6.10
2017-12-29T07:16:19.800Z,4.70
2017-12-29T07:18:47.803Z,4.33
2017-12-29T07:21:15.548Z,4.60
2017-12-29T07:23:43.503Z,4.20
2017-12-29T07:26:11.724Z,4.47
2017-12-29T07:28:39.769Z,5.23
2017-12-29T07:31:07.649Z,4.93
2017-12-29T07:33:36.162Z,4.23
2017-12-29T07:36:04.597Z,4.70
2017-12-29T07:38:32.322Z,4.60
2017-12-29T07:41:01.396Z,4.27
2017-12-29T07:43:29.316Z,4.23
2017-12-29T07:45:56.997Z,5.20
2017-12-29T07:48:25.556Z,5.20
2017-12-29T07:50:53.242Z,4.97
2017-12-29T07:53:21.559Z,4.40
2017-12-29T07:55:49.730Z,4.40
2017-12-29T07:58:17.532Z,4.20
2017-12-29T08:00:45.410Z,5.27
2017-12-29T08:03:13.941Z,5.40
2017-12-29T08:05:41.666Z,4.83
2017-12-29T08:08:09.402Z,5.13
2017-12-29T08:10:37.138Z,5.20
2017-12-29T08:13:04.986Z,3.77
2017-12-29T08:15:32.947Z,4.53
2017-12-29T08:18:00.647Z,4.50
2017-12-29T08:20:28.590Z,4.13
2017-12-29T08:22:56.471Z,5.00
2017-12-29T08:25:24.990Z,4.03
2017-12-29T08:27:53.416Z,4.90
2017-12-29T08:30:21.115Z,4.67
2017-12-29T08:32:48.775Z,6.40
2017-12-29T08:35:16.467Z,4.50
2017-12-29T08:37:44.110Z,3.77
2017-12-29T08:40:12.618Z,3.80
2017-12-29T08:42:40.274Z,3.97
2017-12-29T08:45:07.968Z,4.20
2017-12-29T08:47:35.650Z,3.67
2017-12-29T08:50:03.532Z,4.20
2017-12-29T08:52:33.150Z,4.20
2017-12-29T08:55:02.872Z,4.37
2017-12-29T08:57:30.785Z,3.70
2017-12-29T08:59:59.349Z,4.00
2017-12-29T09:02:27.018Z,4.23
2017-12-29T09:04:54.726Z,3.27
2017-12-29T09:07:22.582Z,3.27
2017-12-29T09:09:51.109Z,3.50
2017-12-29T09:12:18.821Z,3.10
2017-12-29T09:14:47.244Z,2.90
2017-12-29T09:17:14.958Z,3.20
2017-12-29T09:19:43.379Z,3.80
2017-12-29T09:22:11.082Z,4.00
2017-12-29T09:24:39.506Z,3.27
2017-12-29T09:27:07.213Z,3.33
2017-12-29T09:29:34.878Z,3.07
2017-12-29T09:32:03.351Z,3.00
2017-12-29T09:34:31.010Z,2.50
2017-12-29T09:36:58.716Z,2.50
2017-12-29T09:39:26.391Z,3.13
2017-12-29T09:41:54.091Z,3.57
2017-12-29T09:44:21.751Z,2.63
2017-12-29T09:46:50.231Z,3.60
2017-12-29T09:49:18.662Z,2.70
2017-12-29T09:51:46.363Z,2.97
2017-12-29T09:54:14.026Z,2.70
2017-12-29T09:56:41.811Z,2.87
2017-12-29T09:59:09.581Z,2.97
2017-12-29T10:01:37.289Z,2.90
2017-12-29T10:04:04.954Z,3.60
2017-12-29T10:06:32.614Z,2.60
2017-12-29T10:09:00.310Z,2.70
2017-12-29T10:11:27.961Z,2.73
2017-12-29T10:13:56.765Z,2.60
2017-12-29T10:16:24.445Z,2.50
2017-12-29T10:18:52.154Z,2.77
2017-12-29T10:21:20.578Z,2.77
2017-12-29T10:23:48.283Z,3.07
2017-12-29T10:26:15.993Z,1.90
2017-12-29T10:28:43.690Z,2.97
2017-12-29T10:31:11.350Z,2.43
2017-12-29T10:33:39.060Z,2.43
2017-12-29T10:36:06.714Z,2.70
2017-12-29T10:38:34.411Z,2.30
2017-12-29T10:41:02.078Z,3.30
2017-12-29T10:43:29.783Z,2.40
2017-12-29T10:45:58.329Z,2.77
2017-12-29T10:48:26.047Z,2.53
2017-12-29T10:50:53.702Z,2.73
2017-12-29T10:53:21.400Z,2.27
2017-12-29T10:55:49.053Z,2.60
2017-12-29T10:58:16.750Z,1.97
2017-12-29T11:00:45.188Z,2.60
2017-12-29T11:03:12.932Z,2.27
2017-12-29T11:05:40.586Z,2.33
2017-12-29T11:08:08.241Z,2.33
2017-12-29T11:10:35.946Z,2.07
2017-12-29T11:13:03.614Z,2.10
2017-12-29T11:15:31.331Z,2.47
2017-12-29T11:17:59.035Z,2.03
2017-12-29T11:20:26.734Z,2.10
2017-12-29T11:22:54.402Z,1.90
2017-12-29T11:25:22.098Z,2.47
2017-12-29T11:27:49.758Z,2.40
2017-12-29T11:30:17.459Z,1.97
2017-12-29T11:32:45.891Z,2.20
2017-12-29T11:35:13.595Z,2.30
2017-12-29T11:37:41.262Z,2.10
2017-12-29T11:40:08.982Z,1.70
2017-12-29T11:42:36.653Z,1.90
2017-12-29T11:45:04.406Z,2.40
2017-12-29T11:47:32.066Z,2.10
2017-12-29T11:49:59.767Z,2.60
2017-12-29T11:52:27.446Z,2.93
2017-12-29T11:54:55.162Z,2.70
2017-12-29T11:57:23.598Z,2.70
2017-12-29T11:59:51.290Z,2.40
2017-12-29T12:02:19.715Z,2.70
2017-12-29T12:04:47.406Z,2.13
2017-12-29T12:07:15.074Z,2.80
2017-12-29T12:09:42.724Z,2.30
2017-12-29T12:12:10.426Z,2.33
2017-12-29T12:14:38.090Z,2.30
2017-12-29T12:17:05.886Z,2.77
2017-12-29T12:19:33.529Z,2.40
2017-12-29T12:22:07.776Z,2.30
2017-12-29T12:24:36.230Z,2.30
2017-12-29T12:27:03.947Z,2.40
2017-12-29T12:29:32.377Z,2.50
2017-12-29T12:32:00.075Z,2.47
2017-12-29T12:34:28.498Z,2.20
2017-12-29T12:36:56.207Z,2.40
2017-12-29T12:39:23.858Z,2.40
2017-12-29T12:41:51.559Z,2.00
2017-12-29T12:44:19.238Z,1.70
2017-12-29T12:46:46.939Z,2.60
2017-12-29T12:49:14.591Z,2.20
2017-12-29T12:51:42.286Z,2.03
2017-12-29T12:54:10.707Z,2.30
2017-12-29T12:56:38.423Z,2.40
2017-12-29T12:59:06.859Z,2.37
2017-12-29T13:01:34.554Z,2.07
2017-12-29T13:04:02.991Z,2.10
2017-12-29T13:06:30.719Z,1.53
2017-12-29T13:08:58.371Z,2.20
2017-12-29T13:11:26.131Z,2.10
2017-12-29T13:13:53.786Z,2.13
2017-12-29T13:16:21.446Z,2.00
2017-12-29T13:18:49.147Z,2.20
2017-12-29T13:21:16.799Z,1.80
2017-12-29T13:23:44.499Z,2.00
2017-12-29T13:26:12.918Z,1.50
2017-12-29T13:28:40.670Z,1.73
2017-12-29T13:31:08.338Z,2.50
2017-12-29T13:33:36.050Z,2.43
2017-12-29T13:36:03.778Z,1.83
2017-12-29T13:38:31.483Z,1.90
2017-12-29T13:40:59.906Z,1.80
2017-12-29T13:43:27.651Z,2.00
2017-12-29T13:45:55.314Z,1.50
2017-12-29T13:48:23.015Z,1.73
2017-12-29T13:50:50.679Z,4.10
2017-12-29T13:53:18.378Z,2.60
2017-12-29T13:55:46.030Z,2.40
2017-12-29T13:58:13.723Z,1.43
2017-12-29T14:00:41.382Z,2.00
2017-12-29T14:03:09.072Z,1.90
2017-12-29T14:05:36.730Z,2.10
2017-12-29T14:08:04.430Z,2.30
2017-12-29T14:10:32.074Z,3.13
2017-12-29T14:13:00.534Z,3.67
2017-12-29T14:15:28.199Z,3.57
2017-12-29T14:17:56.626Z,3.47
2017-12-29T14:20:24.316Z,5.37
2017-12-29T14:22:51.972Z,2.80
2017-12-29T14:25:19.666Z,2.97
2017-12-29T14:27:48.095Z,2.90
2017-12-29T14:30:15.783Z,2.87
2017-12-29T14:32:43.434Z,2.27
2017-12-29T14:35:11.148Z,3.97
2017-12-29T14:37:38.811Z,3.17
2017-12-29T14:40:06.502Z,2.50
2017-12-29T14:42:34.195Z,3.37
2017-12-29T14:45:02.650Z,3.00
2017-12-29T14:47:30.346Z,3.07
2017-12-29T14:49:58.811Z,2.70
2017-12-29T14:52:27.251Z,1.80
2017-12-29T14:54:54.950Z,2.77
2017-12-29T14:57:23.411Z,2.00
2017-12-29T14:59:51.114Z,2.50
2017-12-29T15:02:18.774Z,2.03
2017-12-29T15:04:46.509Z,2.13
2017-12-29T15:07:14.939Z,2.70
2017-12-29T15:09:42.642Z,2.17
2017-12-29T15:12:11.061Z,2.43
2017-12-29T15:14:38.768Z,2.50
2017-12-29T15:17:06.443Z,2.73
2017-12-29T15:19:34.884Z,3.43
2017-12-29T15:22:02.605Z,3.10
2017-12-29T15:24:30.275Z,2.50
2017-12-29T15:26:57.975Z,2.80
2017-12-29T15:29:25.647Z,3.50
2017-12-29T15:31:53.354Z,3.70
2017-12-29T15:34:21.014Z,3.43
2017-12-29T15:36:48.715Z,3.20
2017-12-29T15:39:16.397Z,2.20
2017-12-29T15:41:44.870Z,2.40
2017-12-29T15:44:12.531Z,2.60
2017-12-29T15:46:40.999Z,3.00
2017-12-29T15:49:08.663Z,2.70
2017-12-29T15:51:36.425Z,2.97
2017-12-29T15:54:04.083Z,3.20
2017-12-29T15:56:31.775Z,3.60
2017-12-29T15:58:59.433Z,3.33
2017-12-29T16:01:29.014Z,3.30
2017-12-29T16:03:57.438Z,3.00
2017-12-29T16:06:25.135Z,5.37
2017-12-29T16:08:52.798Z,3.20
2017-12-29T16:11:20.497Z,3.00
2017-12-29T16:13:48.147Z,2.77
2017-12-29T16:16:16.615Z,4.23
2017-12-29T16:18:45.040Z,2.67
2017-12-29T16:21:12.685Z,2.60
2017-12-29T16:23:40.383Z,2.20
2017-12-29T16:26:08.044Z,2.57
2017-12-29T16:28:35.746Z,2.77
2017-12-29T16:31:03.454Z,2.60
2017-12-29T16:33:31.144Z,2.17
2017-12-29T16:35:59.566Z,1.50
2017-12-29T16:38:27.267Z,2.80
2017-12-29T16:40:54.939Z,1.93
2017-12-29T16:43:23.402Z,2.40
2017-12-29T16:45:51.067Z,2.13
2017-12-29T16:48:18.776Z,1.77
2017-12-29T16:50:46.439Z,2.50
2017-12-29T16:53:14.131Z,2.30
2017-12-29T16:55:41.785Z,2.90
2017-12-29T16:58:09.499Z,2.47
2017-12-29T17:00:37.198Z,2.50
2017-12-29T17:03:04.918Z,2.60
2017-12-29T17:05:32.598Z,2.80
2017-12-29T17:08:00.307Z,2.60
2017-12-29T17:10:27.965Z,2.70
2017-12-29T17:12:56.462Z,3.00
2017-12-29T17:15:24.882Z,2.40
2017-12-29T17:17:52.586Z,3.00
2017-12-29T17:20:21.010Z,3.00
2017-12-29T17:22:48.722Z,2.57
2017-12-29T17:25:17.156Z,2.93
2017-12-29T17:27:44.862Z,2.60
2017-12-29T17:30:16.082Z,2.90
2017-12-29T17:32:45.600Z,3.10
2017-12-29T17:35:13.266Z,2.57
2017-12-29T17:37:41.751Z,2.40
2017-12-29T17:40:10.211Z,2.67
2017-12-29T17:42:37.911Z,2.60
2017-12-29T17:45:05.585Z,3.17
2017-12-29T17:47:33.282Z,4.33
2017-12-29T17:50:00.945Z,4.30
2017-12-29T17:52:28.644Z,3.00
2017-12-29T17:54:56.298Z,3.40
2017-12-29T17:57:24.765Z,3.47
2017-12-29T17:59:53.220Z,3.60
2017-12-29T18:02:20.984Z,3.70
2017-12-29T18:04:48.895Z,3.70
2017-12-29T18:07:16.603Z,4.00
2017-12-29T18:09:44.300Z,4.60
2017-12-29T18:12:12.791Z,3.53
2017-12-29T18:14:40.497Z,3.23
2017-12-29T18:17:08.222Z,3.00
2017-12-29T18:19:36.536Z,3.00
2017-12-29T18:22:05.712Z,2.77
2017-12-29T18:24:33.963Z,3.70
2017-12-29T18:27:01.682Z,3.17
2017-12-29T18:29:30.115Z,3.00
2017-12-29T18:31:57.813Z,3.30
2017-12-29T18:34:25.487Z,4.10
2017-12-29T18:36:53.952Z,3.50
2017-12-29T18:39:21.802Z,2.80
2017-12-29T18:41:49.546Z,3.23
2017-12-29T18:44:17.971Z,3.90
2017-12-29T18:46:47.007Z,3.23
2017-12-29T18:49:15.544Z,3.80
2017-12-29T18:51:44.667Z,3.40
2017-12-29T18:54:13.174Z,3.40
2017-12-29T18:56:40.917Z,3.73
2017-12-29T18:59:08.674Z,4.50
2017-12-29T19:01:36.386Z,4.23
2017-12-29T19:04:04.183Z,3.93
2017-12-29T19:06:32.390Z,4.70
2017-12-29T19:09:00.137Z,4.57
2017-12-29T19:11:28.614Z,4.63
2017-12-29T19:13:56.318Z,4.47
2017-12-29T19:16:23.998Z,4.57
2017-12-29T19:18:52.476Z,4.80
2017-12-29T19:21:20.902Z,5.20
2017-12-29T19:23:48.611Z,5.77
2017-12-29T19:26:17.051Z,6.13
2017-12-29T19:28:44.906Z,5.27
2017-12-29T19:31:12.678Z,4.90
2017-12-29T19:33:40.382Z,4.53
2017-12-29T19:36:09.318Z,4.60
2017-12-29T19:38:37.168Z,4.40
2017-12-29T19:41:04.850Z,4.23
2017-12-29T19:43:33.636Z,5.13
2017-12-29T19:46:01.524Z,4.67
2017-12-29T19:48:30.532Z,5.20
2017-12-29T19:50:58.242Z,4.27
2017-12-29T19:53:25.922Z,5.43
2017-12-29T19:55:53.631Z,5.40
2017-12-29T19:58:21.286Z,5.80
2017-12-29T20:00:48.998Z,4.80
2017-12-29T20:03:16.747Z,5.80
2017-12-29T20:05:44.457Z,6.53
2017-12-29T20:08:12.885Z,5.83
2017-12-29T20:10:40.594Z,6.67
2017-12-29T20:13:08.255Z,5.80
2017-12-29T20:15:35.962Z,5.93
2017-12-29T20:18:03.635Z,7.47
2017-12-29T20:20:31.334Z,5.47
2017-12-29T20:22:58.998Z,5.57
2017-12-29T20:25:26.724Z,6.00
2017-12-29T20:27:54.392Z,6.27
2017-12-29T20:30:22.871Z,6.93
2017-12-29T20:32:51.299Z,5.60
2017-12-29T20:35:19.007Z,6.20
2017-12-29T20:37:47.451Z,6.07
2017-12-29T20:40:15.159Z,5.10
2017-12-29T20:42:43.578Z,6.80
2017-12-29T20:45:11.278Z,5.57
2017-12-29T20:47:39.731Z,5.43
2017-12-29T20:50:07.431Z,5.90
2017-12-29T20:52:35.860Z,5.43
2017-12-29T20:55:03.524Z,6.00
2017-12-29T20:57:31.250Z,6.30
2017-12-29T20:59:58.903Z,6.10
2017-12-29T21:02:26.602Z,8.50
2017-12-29T21:04:54.263Z,8.20
2017-12-29T21:07:21.962Z,6.53
2017-12-29T21:09:50.436Z,6.43
2017-12-29T21:12:18.125Z,6.00
2017-12-29T21:14:45.786Z,6.20
2017-12-29T21:17:13.485Z,5.30
2017-12-29T21:19:41.134Z,5.30
2017-12-29T21:22:08.907Z,10.27
2017-12-29T21:24:36.567Z,7.20
2017-12-29T21:27:04.275Z,6.20
2017-12-29T21:29:32.704Z,6.30
2017-12-29T21:32:00.407Z,5.70
2017-12-29T21:34:28.818Z,5.80
2017-12-29T21:36:56.510Z,6.40
2017-12-29T21:39:24.256Z,5.67
2017-12-29T21:41:51.950Z,6.37
2017-12-29T21:44:19.618Z,6.60
2017-12-29T21:46:48.089Z,6.40
2017-12-29T21:49:16.510Z,5.67
2017-12-29T21:51:44.201Z,5.40
2017-12-29T21:54:11.866Z,5.93
2017-12-29T21:56:39.531Z,6.47
2017-12-29T21:59:07.242Z,6.90
2017-12-29T22:01:34.893Z,6.30
2017-12-29T22:04:02.587Z,5.73
2017-12-29T22:06:30.242Z,5.30
2017-12-29T22:08:58.714Z,6.67
2017-12-29T22:11:26.386Z,6.73
2017-12-29T22:13:54.082Z,7.00
2017-12-29T22:16:22.511Z,5.47
2017-12-29T22:18:50.218Z,7.13
2017-12-29T22:21:18.643Z,6.83
2017-12-29T22:23:46.339Z,6.73
2017-12-29T22:26:14.010Z,6.80
2017-12-29T22:28:41.711Z,6.93
2017-12-29T22:31:09.366Z,7.10
2017-12-29T22:33:37.070Z,6.57
2017-12-29T22:36:04.771Z,7.20
2017-12-29T22:38:32.472Z,8.20
2017-12-29T22:41:00.153Z,7.27
2017-12-29T22:43:27.854Z,7.17
2017-12-29T22:45:55.503Z,7.00
2017-12-29T22:48:23.969Z,7.50
2017-12-29T22:50:52.414Z,6.40
2017-12-29T22:53:20.106Z,8.33
2017-12-29T22:55:48.538Z,6.60
2017-12-29T22:58:16.246Z,6.43
2017-12-29T23:00:44.758Z,7.23
2017-12-29T23:03:12.422Z,6.47
2017-12-29T23:05:40.117Z,7.10
2017-12-29T23:08:07.771Z,6.30
2017-12-29T23:10:36.234Z,7.87
2017-12-29T23:13:03.890Z,7.53
2017-12-29T23:15:31.582Z,8.37
2017-12-29T23:17:59.243Z,8.47
2017-12-29T23:20:26.953Z,8.43
2017-12-29T23:22:54.615Z,9.43
2017-12-29T23:25:22.315Z,8.10
2017-12-29T23:27:49.978Z,8.20
2017-12-29T23:30:17.675Z,7.97
2017-12-29T23:32:45.339Z,9.03
2017-12-29T23:35:13.058Z,8.70
2017-12-29T23:37:40.719Z,8.00
2017-12-29T23:40:08.411Z,8.63
2017-12-29T23:42:36.087Z,7.10
2017-12-29T23:45:03.811Z,9.20
2017-12-29T23:47:31.482Z,8.53
2017-12-29T23:49:59.943Z,8.57
2017-12-29T23:52:27.602Z,8.33
2017-12-29T23:54:55.295Z,7.33
2017-12-29T23:57:22.950Z,9.20
2017-12-29T23:59:50.674Z,9.10
